createdAt,value
2022-08-26T00:00:12.252Z,35.25
2022-08-26T00:02:43.352Z,35.83
2022-08-26T00:05:13.017Z,35.80
2022-08-26T00:07:40.318Z,35.82
2022-08-26T00:10:16.152Z,35.72
2022-08-26T00:12:44.505Z,35.85
2022-08-26T00:15:21.581Z,36.06
2022-08-26T00:18:02.141Z,35.53
2022-08-26T00:20:42.865Z,36.17
2022-08-26T00:23:10.374Z,36.31
2022-08-26T00:25:38.240Z,35.75
2022-08-26T00:28:13.541Z,36.00
2022-08-26T00:30:41.365Z,36.21
2022-08-26T00:33:11.565Z,36.08
2022-08-26T00:35:41.005Z,35.65
2022-08-26T00:38:18.899Z,36.25
2022-08-26T00:40:57.361Z,35.65
2022-08-26T00:43:47.709Z,36.40
2022-08-26T00:46:25.619Z,36.31
2022-08-26T00:49:11.976Z,36.30
2022-08-26T00:52:12.078Z,36.35
2022-08-26T00:55:02.701Z,36.38
2022-08-26T00:57:35.028Z,35.96
2022-08-26T01:00:05.772Z,35.96
2022-08-26T01:02:34.506Z,36.49
2022-08-26T01:05:06.022Z,36.03
2022-08-26T01:07:37.325Z,36.42
2022-08-26T01:10:30.047Z,36.54
2022-08-26T01:13:06.196Z,36.67
2022-08-26T01:15:42.679Z,36.53
2022-08-26T01:18:12.037Z,36.21
2022-08-26T01:20:59.941Z,36.80
2022-08-26T01:23:34.203Z,36.37
2022-08-26T01:26:19.426Z,36.48
2022-08-26T01:29:01.568Z,36.41
2022-08-26T01:31:37.909Z,36.85
2022-08-26T01:34:50.044Z,36.86
2022-08-26T01:37:24.683Z,36.52
2022-08-26T01:40:09.981Z,37.04
2022-08-26T01:43:18.676Z,37.03
2022-08-26T01:46:00.412Z,36.79
2022-08-26T01:48:40.530Z,37.16
2022-08-26T01:51:10.840Z,36.47
2022-08-26T01:53:41.853Z,37.23
2022-08-26T01:56:19.253Z,37.21
2022-08-26T01:58:58.050Z,36.58
2022-08-26T02:01:29.173Z,36.96
2022-08-26T02:04:28.944Z,36.83
2022-08-26T02:06:57.862Z,36.83
2022-08-26T02:09:27.848Z,36.73
2022-08-26T02:12:07.295Z,37.05
2022-08-26T02:14:51.292Z,37.19
2022-08-26T02:17:22.180Z,37.74
2022-08-26T02:19:52.553Z,37.22
2022-08-26T02:22:40.388Z,37.53
2022-08-26T02:25:46.278Z,37.29
2022-08-26T02:28:21.754Z,37.80
2022-08-26T02:30:58.412Z,37.44
2022-08-26T02:33:35.266Z,37.39
2022-08-26T02:36:06.479Z,38.13
2022-08-26T02:38:37.854Z,37.38
2022-08-26T02:41:08.083Z,37.42
2022-08-26T02:43:35.301Z,37.99
2022-08-26T02:46:06.250Z,38.03
2022-08-26T02:48:36.077Z,37.81
2022-08-26T02:51:06.690Z,37.67
2022-08-26T02:53:35.598Z,38.09
2022-08-26T02:56:05.417Z,38.24
2022-08-26T02:58:32.896Z,38.35
2022-08-26T03:01:00.239Z,37.72
2022-08-26T03:03:29.578Z,38.15
2022-08-26T03:06:01.810Z,37.87
2022-08-26T03:08:28.880Z,37.73
2022-08-26T03:10:55.979Z,38.35
2022-08-26T03:13:26.908Z,38.06
2022-08-26T03:15:56.277Z,38.49
2022-08-26T03:18:26.467Z,38.27
2022-08-26T03:20:56.348Z,38.58
2022-08-26T03:23:28.174Z,38.29
2022-08-26T03:26:03.999Z,37.97
2022-08-26T03:28:31.654Z,38.43
2022-08-26T03:31:02.658Z,38.81
2022-08-26T03:33:30.045Z,38.54
2022-08-26T03:35:57.074Z,38.17
2022-08-26T03:38:37.941Z,38.49
2022-08-26T03:41:12.590Z,39.12
2022-08-26T03:43:41.197Z,39.07
2022-08-26T03:46:12.866Z,38.94
2022-08-26T03:48:40.689Z,38.68
2022-08-26T03:51:22.612Z,39.10
2022-08-26T03:53:53.733Z,39.46
2022-08-26T03:56:25.171Z,38.88
2022-08-26T03:58:56.286Z,39.16
2022-08-26T04:01:29.842Z,39.10
2022-08-26T04:04:06.431Z,39.26
2022-08-26T04:06:46.342Z,39.39
2022-08-26T04:09:22.552Z,39.13
2022-08-26T04:11:53.761Z,38.82
2022-08-26T04:14:47.110Z,38.85
2022-08-26T04:17:17.930Z,39.59
2022-08-26T04:19:45.052Z,39.09
2022-08-26T04:22:12.541Z,39.66
2022-08-26T04:24:40.221Z,39.43
2022-08-26T04:27:08.203Z,39.40
2022-08-26T04:29:35.284Z,39.38
2022-08-26T04:32:03.100Z,39.32
2022-08-26T04:34:30.219Z,39.76
2022-08-26T04:36:57.866Z,39.45
2022-08-26T04:39:25.600Z,39.90
2022-08-26T04:41:55.584Z,39.96
2022-08-26T04:44:27.474Z,40.00
2022-08-26T04:46:55.707Z,39.97
2022-08-26T04:49:23.100Z,40.40
2022-08-26T04:51:53.301Z,39.37
2022-08-26T04:54:20.596Z,39.42
2022-08-26T04:56:49.585Z,40.17
2022-08-26T04:59:18.245Z,39.94
2022-08-26T05:01:51.716Z,40.31
2022-08-26T05:04:20.136Z,40.28
2022-08-26T05:06:50.685Z,40.05
2022-08-26T05:09:19.559Z,40.64
2022-08-26T05:11:48.565Z,40.32
2022-08-26T05:14:20.949Z,39.92
2022-08-26T05:16:48.075Z,40.31
2022-08-26T05:19:19.036Z,40.08
2022-08-26T05:21:47.785Z,40.39
2022-08-26T05:24:16.627Z,40.07
2022-08-26T05:26:44.594Z,40.13
2022-08-26T05:29:12.848Z,40.00
2022-08-26T05:31:39.768Z,40.40
2022-08-26T05:34:08.392Z,40.38
2022-08-26T05:36:36.969Z,40.73
2022-08-26T05:39:08.152Z,40.50
2022-08-26T05:41:40.771Z,40.63
2022-08-26T05:44:11.114Z,40.68
2022-08-26T05:46:40.037Z,41.09
2022-08-26T05:49:12.211Z,40.56
2022-08-26T05:51:45.150Z,41.04
2022-08-26T05:54:22.361Z,41.29
2022-08-26T05:56:53.387Z,41.08
2022-08-26T05:59:24.199Z,41.09
2022-08-26T06:02:02.391Z,40.98
2022-08-26T06:04:29.876Z,41.19
2022-08-26T06:06:58.168Z,40.71
2022-08-26T06:09:26.722Z,41.23
2022-08-26T06:11:53.956Z,41.28
2022-08-26T06:14:20.980Z,41.39
2022-08-26T06:16:48.084Z,41.31
2022-08-26T06:19:15.789Z,41.37
2022-08-26T06:21:46.864Z,40.90
2022-08-26T06:24:32.933Z,41.08
2022-08-26T06:27:03.200Z,40.94
2022-08-26T06:29:33.679Z,41.37
2022-08-26T06:32:01.740Z,41.29
2022-08-26T06:34:30.381Z,41.43
2022-08-26T06:37:01.958Z,41.82
2022-08-26T06:39:30.731Z,41.16
2022-08-26T06:41:59.127Z,41.68
2022-08-26T06:44:26.968Z,41.40
2022-08-26T06:46:54.276Z,41.76
2022-08-26T06:49:25.866Z,41.22
2022-08-26T06:51:59.936Z,41.58
2022-08-26T06:54:29.186Z,41.13
2022-08-26T06:57:05.880Z,41.74
2022-08-26T06:59:34.191Z,41.62
2022-08-26T07:02:02.395Z,41.46
2022-08-26T07:04:29.720Z,41.46
2022-08-26T07:06:56.890Z,41.92
2022-08-26T07:09:27.701Z,41.39
2022-08-26T07:11:56.476Z,41.67
2022-08-26T07:14:26.373Z,41.55
2022-08-26T07:16:54.260Z,42.01
2022-08-26T07:19:29.016Z,42.18
2022-08-26T07:22:04.939Z,41.53
2022-08-26T07:24:38.396Z,41.69
2022-08-26T07:27:08.606Z,42.04
2022-08-26T07:29:37.996Z,42.34
2022-08-26T07:32:13.222Z,41.59
2022-08-26T07:34:40.724Z,42.46
2022-08-26T07:37:09.305Z,42.55
2022-08-26T07:39:36.561Z,41.95
2022-08-26T07:42:08.024Z,41.87
2022-08-26T07:44:36.908Z,42.08
2022-08-26T07:47:03.908Z,42.42
2022-08-26T07:49:38.298Z,41.89
2022-08-26T07:52:05.948Z,41.87
2022-08-26T07:54:33.312Z,42.37
2022-08-26T07:57:00.865Z,42.01
2022-08-26T07:59:32.130Z,42.47
2022-08-26T08:01:59.786Z,41.82
2022-08-26T08:04:27.281Z,41.86
2022-08-26T08:06:55.453Z,42.52
2022-08-26T08:09:23.457Z,41.95
2022-08-26T08:11:52.917Z,42.33
2022-08-26T08:14:22.166Z,42.34
2022-08-26T08:16:51.131Z,42.39
2022-08-26T08:19:23.151Z,42.21
2022-08-26T08:21:51.085Z,42.98
2022-08-26T08:24:18.325Z,43.06
2022-08-26T08:26:46.097Z,42.32
2022-08-26T08:29:13.335Z,42.34
2022-08-26T08:31:58.374Z,42.78
2022-08-26T08:34:28.297Z,42.36
2022-08-26T08:36:57.244Z,42.46
2022-08-26T08:39:25.233Z,42.76
2022-08-26T08:42:06.034Z,42.20
2022-08-26T08:44:36.985Z,42.89
2022-08-26T08:47:19.794Z,42.24
2022-08-26T08:49:47.953Z,42.31
2022-08-26T08:52:31.179Z,42.95
2022-08-26T08:54:58.406Z,42.45
2022-08-26T08:57:31.805Z,43.35
2022-08-26T09:00:12.083Z,42.95
2022-08-26T09:02:52.888Z,42.77
2022-08-26T09:05:22.642Z,42.65
2022-08-26T09:07:59.477Z,43.19
2022-08-26T09:10:44.140Z,43.07
2022-08-26T09:13:25.091Z,43.12
2022-08-26T09:16:19.053Z,43.20
2022-08-26T09:19:11.526Z,43.30
2022-08-26T09:21:38.491Z,43.37
2022-08-26T09:24:06.224Z,43.14
2022-08-26T09:26:39.286Z,43.39
2022-08-26T09:29:14.330Z,43.32
2022-08-26T09:31:42.175Z,43.23
2022-08-26T09:34:26.699Z,43.15
2022-08-26T09:36:59.538Z,43.45
2022-08-26T09:39:37.902Z,43.74
2022-08-26T09:42:17.165Z,43.13
2022-08-26T09:45:04.881Z,43.64
2022-08-26T09:47:53.880Z,43.08
2022-08-26T09:50:28.755Z,43.48
2022-08-26T09:53:09.921Z,43.00
2022-08-26T09:55:42.069Z,43.29
2022-08-26T09:58:31.860Z,43.50
2022-08-26T10:01:03.465Z,43.54
2022-08-26T10:03:34.676Z,43.94
2022-08-26T10:06:16.776Z,42.91
2022-08-26T10:08:47.830Z,43.19
2022-08-26T10:11:36.208Z,43.86
2022-08-26T10:14:15.714Z,43.03
2022-08-26T10:16:52.004Z,43.29
2022-08-26T10:19:29.148Z,43.58
2022-08-26T10:22:36.832Z,43.95
2022-08-26T10:25:08.968Z,43.26
2022-08-26T10:27:55.451Z,43.28
2022-08-26T10:30:37.368Z,43.09
2022-08-26T10:33:11.199Z,43.73
2022-08-26T10:35:50.059Z,43.46
2022-08-26T10:38:21.421Z,43.95
2022-08-26T10:41:20.603Z,43.81
2022-08-26T10:43:59.673Z,43.24
2022-08-26T10:46:42.401Z,43.64
2022-08-26T10:49:15.768Z,43.85
2022-08-26T10:52:03.906Z,43.77
2022-08-26T10:54:43.514Z,43.84
2022-08-26T10:57:20.431Z,43.93
2022-08-26T11:00:23.335Z,43.43
2022-08-26T11:03:03.207Z,43.69
2022-08-26T11:05:30.496Z,43.72
2022-08-26T11:08:19.415Z,44.01
2022-08-26T11:10:50.624Z,43.13
2022-08-26T11:13:17.945Z,44.06
2022-08-26T11:15:54.424Z,43.32
2022-08-26T11:18:42.125Z,44.09
2022-08-26T11:21:47.767Z,43.58
2022-08-26T11:24:41.555Z,43.66
2022-08-26T11:27:12.296Z,43.32
2022-08-26T11:30:04.149Z,44.11
2022-08-26T11:32:34.022Z,43.72
2022-08-26T11:35:04.429Z,43.63
2022-08-26T11:38:02.739Z,44.09
2022-08-26T11:40:35.491Z,43.24
2022-08-26T11:43:11.508Z,43.33
2022-08-26T11:45:48.568Z,43.29
2022-08-26T11:48:35.308Z,43.82
2022-08-26T11:51:13.558Z,43.87
2022-08-26T11:53:43.163Z,44.06
2022-08-26T11:56:15.774Z,44.13
2022-08-26T11:58:45.073Z,44.21
2022-08-26T12:01:32.370Z,43.90
2022-08-26T12:04:00.403Z,43.72
2022-08-26T12:06:48.430Z,43.90
2022-08-26T12:09:23.003Z,43.96
2022-08-26T12:11:50.017Z,44.24
2022-08-26T12:14:25.120Z,43.88
2022-08-26T12:16:54.805Z,44.07
2022-08-26T12:19:29.471Z,44.08
2022-08-26T12:22:10.708Z,43.61
2022-08-26T12:24:47.727Z,43.83
2022-08-26T12:27:20.990Z,43.96
2022-08-26T12:30:24.669Z,44.22
2022-08-26T12:33:22.470Z,44.18
2022-08-26T12:35:56.302Z,44.14
2022-08-26T12:38:26.897Z,43.81
2022-08-26T12:40:54.949Z,43.26
2022-08-26T12:43:39.494Z,43.50
2022-08-26T12:46:08.888Z,43.84
2022-08-26T12:48:38.738Z,44.29
2022-08-26T12:51:19.699Z,43.57
2022-08-26T12:53:46.845Z,44.25
2022-08-26T12:56:34.035Z,44.19
2022-08-26T12:59:23.201Z,43.49
2022-08-26T13:01:50.651Z,43.73
2022-08-26T13:04:41.907Z,44.21
2022-08-26T13:07:25.855Z,44.14
2022-08-26T13:09:55.899Z,43.44
2022-08-26T13:12:34.949Z,43.52
2022-08-26T13:15:03.370Z,43.55
2022-08-26T13:17:31.287Z,43.40
2022-08-26T13:20:03.480Z,43.89
2022-08-26T13:22:31.708Z,43.94
2022-08-26T13:24:58.702Z,43.93
2022-08-26T13:27:27.275Z,43.84
2022-08-26T13:29:57.125Z,43.81
2022-08-26T13:32:27.374Z,44.13
2022-08-26T13:34:56.540Z,43.55
2022-08-26T13:37:34.136Z,43.86
2022-08-26T13:40:02.735Z,43.44
2022-08-26T13:42:29.793Z,43.93
2022-08-26T13:44:58.202Z,44.29
2022-08-26T13:47:26.093Z,44.16
2022-08-26T13:49:55.436Z,43.89
2022-08-26T13:52:30.002Z,43.71
2022-08-26T13:55:00.318Z,43.57
2022-08-26T13:57:30.086Z,44.32
2022-08-26T13:59:59.423Z,44.23
2022-08-26T14:02:31.189Z,43.73
2022-08-26T14:04:58.236Z,44.20
2022-08-26T14:07:25.256Z,43.88
2022-08-26T14:09:52.509Z,44.32
2022-08-26T14:12:19.523Z,44.29
2022-08-26T14:14:46.511Z,43.79
2022-08-26T14:17:18.275Z,44.08
2022-08-26T14:19:46.625Z,44.05
2022-08-26T14:22:17.346Z,44.27
2022-08-26T14:24:44.860Z,43.95
2022-08-26T14:27:13.141Z,44.44
2022-08-26T14:29:41.109Z,43.72
2022-08-26T14:32:13.781Z,43.81
2022-08-26T14:34:42.130Z,43.87
2022-08-26T14:37:11.479Z,43.78
2022-08-26T14:39:40.588Z,44.45
2022-08-26T14:42:07.554Z,43.81
2022-08-26T14:44:34.576Z,43.76
2022-08-26T14:47:04.171Z,43.94
2022-08-26T14:49:31.569Z,44.31
2022-08-26T14:51:58.796Z,44.44
2022-08-26T14:54:26.115Z,44.33
2022-08-26T14:57:01.900Z,44.49
2022-08-26T14:59:33.473Z,44.53
2022-08-26T15:02:01.018Z,44.50
2022-08-26T15:04:28.739Z,44.74
2022-08-26T15:06:57.513Z,44.52
2022-08-26T15:09:25.473Z,44.12
2022-08-26T15:11:53.287Z,44.65
2022-08-26T15:14:21.257Z,44.77
2022-08-26T15:16:50.048Z,44.46
2022-08-26T15:19:18.305Z,44.83
2022-08-26T15:21:54.636Z,44.16
2022-08-26T15:24:24.235Z,44.82
2022-08-26T15:26:51.957Z,44.72
2022-08-26T15:29:19.320Z,44.41
2022-08-26T15:31:47.617Z,44.51
2022-08-26T15:34:16.981Z,44.04
2022-08-26T15:36:46.421Z,44.29
2022-08-26T15:39:15.036Z,43.98
2022-08-26T15:41:42.153Z,44.09
2022-08-26T15:44:10.135Z,44.81
2022-08-26T15:46:37.694Z,44.06
2022-08-26T15:49:05.886Z,44.80
2022-08-26T15:51:45.279Z,43.83
2022-08-26T15:54:14.315Z,44.70
2022-08-26T15:56:41.291Z,44.45
2022-08-26T15:59:11.655Z,44.13
2022-08-26T16:01:39.562Z,44.76
2022-08-26T16:04:06.851Z,44.72
2022-08-26T16:06:36.333Z,44.55
2022-08-26T16:09:03.470Z,44.12
2022-08-26T16:11:31.269Z,44.28
2022-08-26T16:13:58.405Z,44.63
2022-08-26T16:16:26.381Z,44.92
2022-08-26T16:18:53.916Z,44.02
2022-08-26T16:21:25.027Z,44.60
2022-08-26T16:23:52.200Z,44.31
2022-08-26T16:26:22.836Z,44.46
2022-08-26T16:28:49.824Z,44.51
2022-08-26T16:31:17.304Z,44.32
2022-08-26T16:33:44.314Z,44.11
2022-08-26T16:36:13.149Z,44.67
2022-08-26T16:38:41.287Z,44.36
2022-08-26T16:41:08.751Z,44.32
2022-08-26T16:43:36.794Z,44.10
2022-08-26T16:46:06.616Z,44.69
2022-08-26T16:48:34.203Z,44.38
2022-08-26T16:51:01.184Z,44.10
2022-08-26T16:53:28.212Z,44.96
2022-08-26T16:55:55.446Z,44.63
2022-08-26T16:58:22.520Z,44.20
2022-08-26T17:00:49.975Z,44.33
2022-08-26T17:03:17.298Z,44.98
2022-08-26T17:05:44.608Z,44.99
2022-08-26T17:08:13.843Z,44.80
2022-08-26T17:10:48.842Z,43.99
2022-08-26T17:13:35.322Z,44.49
2022-08-26T17:16:05.722Z,44.91
2022-08-26T17:18:33.875Z,44.64
2022-08-26T17:21:06.684Z,44.69
2022-08-26T17:23:34.336Z,44.21
2022-08-26T17:26:01.502Z,44.54
2022-08-26T17:28:28.619Z,44.56
2022-08-26T17:30:57.749Z,44.76
2022-08-26T17:33:25.677Z,44.02
2022-08-26T17:35:53.206Z,44.37
2022-08-26T17:38:21.286Z,44.54
2022-08-26T17:40:50.064Z,44.35
2022-08-26T17:43:18.114Z,44.38
2022-08-26T17:45:45.676Z,44.62
2022-08-26T17:48:13.144Z,44.89
2022-08-26T17:50:41.534Z,44.12
2022-08-26T17:53:17.826Z,44.49
2022-08-26T17:55:49.925Z,44.79
2022-08-26T17:58:18.834Z,44.25
2022-08-26T18:00:48.886Z,44.76
2022-08-26T18:03:16.393Z,44.44
2022-08-26T18:05:47.952Z,44.23
2022-08-26T18:08:14.991Z,44.56
2022-08-26T18:10:43.814Z,44.55
2022-08-26T18:13:11.541Z,44.62
2022-08-26T18:15:40.064Z,44.96
2022-08-26T18:18:07.371Z,45.08
2022-08-26T18:20:34.705Z,44.60
2022-08-26T18:23:01.671Z,44.58
2022-08-26T18:25:28.689Z,44.85
2022-08-26T18:27:55.771Z,44.60
2022-08-26T18:30:22.900Z,44.96
2022-08-26T18:32:50.728Z,44.65
2022-08-26T18:35:18.761Z,44.49
2022-08-26T18:37:46.505Z,44.53
2022-08-26T18:40:15.549Z,45.07
2022-08-26T18:42:42.635Z,44.83
2022-08-26T18:45:10.190Z,44.84
2022-08-26T18:47:44.104Z,44.80
2022-08-26T18:50:11.559Z,44.82
2022-08-26T18:52:39.578Z,44.78
2022-08-26T18:55:06.991Z,45.06
2022-08-26T18:57:34.236Z,44.53
2022-08-26T19:00:01.940Z,44.50
2022-08-26T19:02:28.935Z,44.67
2022-08-26T19:04:57.605Z,44.38
2022-08-26T19:07:24.585Z,44.72
2022-08-26T19:09:53.869Z,44.40
2022-08-26T19:12:21.575Z,44.87
2022-08-26T19:14:48.736Z,44.53
2022-08-26T19:17:15.695Z,45.06
2022-08-26T19:19:42.671Z,44.84
2022-08-26T19:22:12.106Z,45.04
2022-08-26T19:24:39.123Z,44.48
2022-08-26T19:27:06.006Z,44.69
2022-08-26T19:29:35.019Z,44.27
2022-08-26T19:32:03.218Z,45.20
2022-08-26T19:34:30.351Z,44.33
2022-08-26T19:36:58.394Z,44.60
2022-08-26T19:39:26.299Z,44.95
2022-08-26T19:41:53.702Z,44.83
2022-08-26T19:44:41.105Z,45.33
2022-08-26T19:47:10.475Z,44.99
2022-08-26T19:49:39.027Z,44.66
2022-08-26T19:52:06.355Z,44.94
2022-08-26T19:54:34.624Z,44.83
2022-08-26T19:57:01.595Z,45.16
2022-08-26T19:59:29.258Z,44.63
2022-08-26T20:02:01.033Z,45.14
2022-08-26T20:04:32.919Z,44.77
2022-08-26T20:07:01.252Z,45.29
2022-08-26T20:09:34.061Z,45.43
2022-08-26T20:12:01.401Z,45.12
2022-08-26T20:14:29.892Z,44.85
2022-08-26T20:16:57.289Z,45.04
2022-08-26T20:19:42.877Z,45.12
2022-08-26T20:22:11.105Z,45.18
2022-08-26T20:24:38.625Z,44.82
2022-08-26T20:27:07.991Z,44.96
2022-08-26T20:29:36.121Z,45.64
2022-08-26T20:32:15.430Z,45.01
2022-08-26T20:34:46.975Z,44.71
2022-08-26T20:37:14.723Z,45.75
2022-08-26T20:39:42.248Z,45.37
2022-08-26T20:42:20.582Z,45.11
2022-08-26T20:44:54.441Z,45.41
2022-08-26T20:47:22.655Z,45.48
2022-08-26T20:49:58.971Z,45.54
2022-08-26T20:52:29.390Z,45.19
2022-08-26T20:55:33.605Z,45.08
2022-08-26T20:58:00.738Z,45.85
2022-08-26T21:00:28.889Z,45.25
2022-08-26T21:02:56.668Z,44.92
2022-08-26T21:05:23.955Z,45.17
2022-08-26T21:07:51.405Z,45.70
2022-08-26T21:10:18.408Z,45.44
2022-08-26T21:12:45.484Z,45.64
2022-08-26T21:15:12.628Z,45.69
2022-08-26T21:17:39.649Z,45.16
2022-08-26T21:20:20.434Z,45.73
2022-08-26T21:22:51.587Z,45.53
2022-08-26T21:25:22.810Z,45.48
2022-08-26T21:27:50.683Z,45.51
2022-08-26T21:30:28.213Z,45.38
2022-08-26T21:33:01.078Z,45.11
2022-08-26T21:35:28.291Z,45.34
2022-08-26T21:37:57.986Z,45.76
2022-08-26T21:40:25.000Z,45.76
2022-08-26T21:42:54.623Z,45.27
2022-08-26T21:45:21.887Z,45.27
2022-08-26T21:47:50.080Z,45.43
2022-08-26T21:50:17.412Z,45.72
2022-08-26T21:52:53.424Z,45.96
2022-08-26T21:55:21.977Z,45.78
2022-08-26T21:57:49.025Z,45.79
2022-08-26T22:00:20.061Z,45.82
2022-08-26T22:02:52.056Z,45.86
2022-08-26T22:05:19.298Z,45.48
2022-08-26T22:07:49.158Z,45.91
2022-08-26T22:10:18.369Z,45.44
2022-08-26T22:12:53.443Z,45.73
2022-08-26T22:15:34.063Z,45.47
2022-08-26T22:20:49.188Z,45.47
2022-08-26T22:23:30.450Z,45.96
2022-08-26T22:26:00.379Z,45.69
2022-08-26T22:28:28.424Z,45.62
2022-08-26T22:30:55.793Z,46.09
2022-08-26T22:33:24.781Z,45.73
2022-08-26T22:36:02.301Z,46.19
2022-08-26T22:38:37.467Z,46.17
2022-08-26T22:41:08.438Z,45.91
2022-08-26T22:43:40.134Z,45.98
2022-08-26T22:46:18.315Z,46.07
2022-08-26T22:48:45.452Z,46.28
2022-08-26T22:51:25.456Z,45.71
2022-08-26T22:53:52.885Z,46.24
2022-08-26T22:56:25.261Z,46.21
2022-08-26T22:58:52.307Z,46.26
2022-08-26T23:01:22.317Z,46.46
2022-08-26T23:03:51.505Z,46.13
2022-08-26T23:06:20.535Z,46.30
2022-08-26T23:08:47.577Z,46.22
2022-08-26T23:11:19.373Z,45.78
2022-08-26T23:13:46.684Z,46.30
2022-08-26T23:16:17.066Z,46.33
2022-08-26T23:18:44.292Z,46.41
2022-08-26T23:21:16.661Z,46.33
2022-08-26T23:23:51.152Z,45.86
2022-08-26T23:26:18.307Z,46.36
2022-08-26T23:28:51.410Z,46.64
2022-08-26T23:31:18.560Z,46.56
2022-08-26T23:34:04.702Z,46.03
2022-08-26T23:36:34.973Z,46.27
2022-08-26T23:39:10.670Z,46.51
2022-08-26T23:41:40.546Z,46.14
2022-08-26T23:44:10.838Z,46.48
2022-08-26T23:46:39.488Z,45.89
2022-08-26T23:49:17.907Z,46.02
2022-08-26T23:52:03.321Z,46.30
2022-08-26T23:54:36.788Z,46.47
2022-08-26T23:57:06.482Z,46.47
2022-08-26T23:59:34.339Z,46.89
